Time;durP1;ratioP1;P1;durP2;ratioP2;P2;SDS_P1;SDS_P2;PMS_P1;PMS_P2;Temp;Humidity;BMP_temperature;BMP_pressure;BME280_temperature;BME280_humidity;BME280_pressure;Samples;Min_cycle;Max_cycle;Signal;HPM_P1;HPM_P2
2022/07/26 00:01:21;;;;;;;6.45;1.70;;;19.90;99.90;;;;;;5052357;28;20735;-78
2022/07/26 00:04:06;;;;;;;7.88;1.85;;;19.90;99.90;;;;;;5055751;28;20281;-77
2022/07/26 00:06:50;;;;;;;5.35;1.17;;;19.90;99.90;;;;;;5051719;28;20269;-78
2022/07/26 00:09:34;;;;;;;6.97;1.70;;;19.90;99.90;;;;;;5056538;28;20212;-78
2022/07/26 00:12:18;;;;;;;7.25;1.73;;;19.80;99.90;;;;;;5051378;28;20186;-77
2022/07/26 00:15:04;;;;;;;4.97;1.70;;;19.80;99.90;;;;;;5055000;28;20249;-76
2022/07/26 00:17:48;;;;;;;8.25;1.80;;;19.80;99.90;;;;;;5056524;28;20233;-77
2022/07/26 00:20:32;;;;;;;6.65;1.80;;;19.80;99.90;;;;;;5055916;28;20191;-78
2022/07/26 00:23:18;;;;;;;11.80;2.27;;;19.70;99.90;;;;;;5053508;28;20177;-78
2022/07/26 00:26:02;;;;;;;8.50;1.60;;;19.70;99.90;;;;;;5051688;28;20755;-78
2022/07/26 00:28:46;;;;;;;6.30;1.70;;;19.60;99.90;;;;;;5054372;28;20210;-76
2022/07/26 00:31:31;;;;;;;6.32;1.73;;;19.60;99.90;;;;;;5047733;28;20190;-76
2022/07/26 00:34:15;;;;;;;7.10;2.23;;;19.60;99.90;;;;;;5057267;28;20233;-78
2022/07/26 00:36:59;;;;;;;9.57;2.07;;;19.60;99.90;;;;;;5056391;28;20217;-78
2022/07/26 00:39:43;;;;;;;5.83;1.60;;;19.60;99.90;;;;;;5044877;28;20718;-77
2022/07/26 00:42:27;;;;;;;11.77;2.53;;;19.60;99.90;;;;;;5055262;28;20258;-77
2022/07/26 00:45:12;;;;;;;6.43;1.73;;;19.60;99.90;;;;;;5059529;28;20253;-77
2022/07/26 00:47:56;;;;;;;8.47;1.80;;;19.60;99.90;;;;;;5055255;28;20206;-77
2022/07/26 00:50:40;;;;;;;8.40;1.63;;;19.50;99.90;;;;;;5046047;28;20257;-78
2022/07/26 00:53:24;;;;;;;9.67;2.20;;;19.60;99.90;;;;;;5043782;28;20191;-77
2022/07/26 00:56:08;;;;;;;6.67;1.60;;;19.50;99.90;;;;;;5054457;28;20230;-78
2022/07/26 00:58:53;;;;;;;8.80;1.80;;;19.50;99.90;;;;;;5053219;28;20218;-77
2022/07/26 01:01:37;;;;;;;6.10;1.83;;;19.40;99.90;;;;;;5049535;28;20193;-78
2022/07/26 01:04:21;;;;;;;13.68;2.30;;;19.40;99.90;;;;;;5045955;28;20226;-78
2022/07/26 01:07:06;;;;;;;7.17;1.87;;;19.40;99.90;;;;;;5054110;28;20193;-78
2022/07/26 01:09:50;;;;;;;4.50;1.53;;;19.40;99.90;;;;;;5054509;28;20244;-77
2022/07/26 01:12:34;;;;;;;7.63;1.97;;;19.40;99.90;;;;;;5050491;28;20202;-77
2022/07/26 01:15:18;;;;;;;7.77;1.80;;;19.40;99.90;;;;;;5044052;28;20245;-77
2022/07/26 01:18:02;;;;;;;7.23;1.83;;;19.40;99.90;;;;;;5050769;28;20261;-77
2022/07/26 01:20:48;;;;;;;10.87;2.20;;;19.40;99.90;;;;;;5057083;28;20186;-80
2022/07/26 01:23:33;;;;;;;9.93;2.57;;;19.40;99.90;;;;;;5048310;28;20186;-78
2022/07/26 01:26:17;;;;;;;8.33;1.77;;;19.40;99.90;;;;;;5052299;28;20206;-77
2022/07/26 01:29:01;;;;;;;9.47;2.00;;;19.40;99.90;;;;;;5051246;28;20780;-77
2022/07/26 01:31:46;;;;;;;11.70;2.10;;;19.40;99.90;;;;;;5053305;28;20194;-76
2022/07/26 01:34:31;;;;;;;7.37;1.93;;;19.30;99.90;;;;;;5053509;28;20206;-76
2022/07/26 01:37:15;;;;;;;6.87;1.83;;;19.30;99.90;;;;;;5053146;28;20241;-79
2022/07/26 01:39:59;;;;;;;8.17;2.27;;;19.30;99.90;;;;;;5052303;28;20187;-78
2022/07/26 01:42:43;;;;;;;12.00;2.50;;;19.30;99.90;;;;;;5054617;28;20199;-77
2022/07/26 02:00:13;;;;;;;8.43;1.87;;;19.30;99.90;;;;;;5038212;28;20191;-77
2022/07/26 02:02:57;;;;;;;6.80;1.97;;;19.40;99.90;;;;;;5061389;28;20203;-76
2022/07/26 02:05:41;;;;;;;10.70;2.43;;;19.30;99.90;;;;;;5055457;28;20245;-78
2022/07/26 02:08:25;;;;;;;9.97;1.97;;;19.30;99.90;;;;;;5057442;28;20278;-77
2022/07/26 02:11:09;;;;;;;7.30;1.87;;;19.30;99.90;;;;;;5048297;28;20188;-76
2022/07/26 02:13:53;;;;;;;8.00;2.23;;;19.30;99.90;;;;;;5056622;28;20248;-77
2022/07/26 02:16:37;;;;;;;11.50;2.97;;;19.30;99.90;;;;;;5049960;28;20206;-77
2022/07/26 02:19:21;;;;;;;10.17;2.03;;;19.20;99.90;;;;;;5053451;28;20613;-76
2022/07/26 02:22:05;;;;;;;11.40;1.90;;;19.20;99.90;;;;;;5053945;28;20552;-78
2022/07/26 02:24:50;;;;;;;12.93;2.90;;;19.20;99.90;;;;;;5057564;28;20268;-77
2022/07/26 02:27:34;;;;;;;10.23;2.30;;;19.20;99.90;;;;;;5053250;28;20214;-77
2022/07/26 02:30:18;;;;;;;10.20;2.30;;;19.10;99.90;;;;;;5051146;28;20213;-76
2022/07/26 02:33:03;;;;;;;8.73;2.47;;;19.10;99.90;;;;;;5052786;28;20186;-76
2022/07/26 02:35:48;;;;;;;9.67;2.40;;;19.00;99.90;;;;;;5057421;28;20213;-77
2022/07/26 02:38:33;;;;;;;8.23;2.60;;;19.00;99.90;;;;;;5058446;28;20656;-77
2022/07/26 02:41:17;;;;;;;5.93;1.73;;;19.00;99.90;;;;;;5054141;28;20194;-76
2022/07/26 02:44:01;;;;;;;8.93;2.20;;;19.00;99.90;;;;;;5051090;28;20612;-77
2022/07/26 02:46:46;;;;;;;9.80;2.43;;;19.00;99.90;;;;;;5050877;28;20202;-76
2022/07/26 02:49:30;;;;;;;9.83;2.73;;;19.00;99.90;;;;;;5054917;28;20247;-78
2022/07/26 02:52:14;;;;;;;15.00;2.67;;;19.00;99.90;;;;;;5056343;28;20212;-77
2022/07/26 02:54:58;;;;;;;5.90;2.30;;;18.90;99.90;;;;;;5064581;28;20214;-77
2022/07/26 02:57:42;;;;;;;6.40;1.80;;;18.90;99.90;;;;;;5063626;28;20681;-78
2022/07/26 03:00:27;;;;;;;9.67;2.57;;;18.90;99.90;;;;;;5046068;28;20178;-77
2022/07/26 03:03:12;;;;;;;12.30;2.67;;;18.90;99.90;;;;;;5050235;28;20543;-77
2022/07/26 03:05:57;;;;;;;8.67;2.23;;;18.90;99.90;;;;;;5061202;28;20189;-76
2022/07/26 03:08:41;;;;;;;10.83;2.17;;;18.90;99.90;;;;;;5050840;28;20695;-77
2022/07/26 03:11:25;;;;;;;8.00;2.10;;;18.90;99.90;;;;;;5051965;28;20210;-77
2022/07/26 03:14:09;;;;;;;5.80;2.03;;;18.90;99.90;;;;;;5053663;28;20199;-76
2022/07/26 03:16:53;;;;;;;11.17;2.60;;;18.90;99.90;;;;;;5052291;28;20218;-77
2022/07/26 03:19:37;;;;;;;11.27;2.30;;;18.90;99.90;;;;;;5051020;28;20215;-77
2022/07/26 03:22:21;;;;;;;7.83;2.13;;;18.90;99.90;;;;;;5040664;28;20203;-77
2022/07/26 03:25:06;;;;;;;10.97;2.47;;;18.90;99.90;;;;;;5061173;28;20179;-77
2022/07/26 03:27:52;;;;;;;13.23;2.57;;;18.80;99.90;;;;;;5049322;28;20348;-78
2022/07/26 03:30:37;;;;;;;9.93;2.60;;;18.80;99.90;;;;;;5048673;28;20233;-76
2022/07/26 03:33:21;;;;;;;9.67;2.63;;;18.80;99.90;;;;;;5056957;28;20597;-78
2022/07/26 03:36:06;;;;;;;12.77;2.93;;;18.80;99.90;;;;;;5052283;28;20480;-77
2022/07/26 03:38:50;;;;;;;13.07;2.83;;;18.80;99.90;;;;;;5050130;28;20207;-78
2022/07/26 03:41:34;;;;;;;7.07;2.17;;;18.80;99.90;;;;;;5063856;28;20214;-77
2022/07/26 03:44:19;;;;;;;10.65;2.60;;;18.70;99.90;;;;;;5050535;28;20392;-78
2022/07/26 03:47:03;;;;;;;8.60;2.50;;;18.70;99.90;;;;;;5061485;28;20198;-78
2022/07/26 03:49:47;;;;;;;11.82;3.05;;;18.70;99.90;;;;;;5047329;28;20505;-77
2022/07/26 03:52:31;;;;;;;13.52;3.13;;;18.70;99.90;;;;;;5046673;28;20433;-77
2022/07/26 03:58:19;;;;;;;7.87;2.20;;;18.60;99.90;;;;;;5047979;28;20291;-76
2022/07/26 04:01:03;;;;;;;11.37;2.80;;;18.60;99.90;;;;;;5048264;28;20245;-77
2022/07/26 04:03:47;;;;;;;14.40;3.03;;;18.60;99.90;;;;;;5049632;28;20450;-77
2022/07/26 04:06:31;;;;;;;13.75;2.70;;;18.50;99.90;;;;;;5049454;28;20424;-77
2022/07/26 04:09:16;;;;;;;9.88;2.60;;;18.50;99.90;;;;;;5054098;28;20186;-77
2022/07/26 04:12:00;;;;;;;10.07;2.50;;;18.50;99.90;;;;;;5049777;28;20317;-78
2022/07/26 04:14:44;;;;;;;10.67;2.83;;;18.50;99.90;;;;;;5048023;28;20199;-77
2022/07/26 04:17:29;;;;;;;15.35;3.50;;;18.50;99.90;;;;;;5049287;28;20416;-76
2022/07/26 04:20:14;;;;;;;11.40;2.70;;;18.50;99.90;;;;;;5043755;28;20177;-76
2022/07/26 04:22:58;;;;;;;12.68;2.88;;;18.50;99.90;;;;;;5052699;28;20904;-77
2022/07/26 04:25:42;;;;;;;9.73;2.67;;;18.50;99.90;;;;;;5050331;28;20261;-77
2022/07/26 04:28:27;;;;;;;8.50;2.73;;;18.50;99.90;;;;;;5052204;28;20223;-76
2022/07/26 04:31:12;;;;;;;15.20;2.80;;;18.50;99.90;;;;;;5054954;28;20190;-77
2022/07/26 04:33:56;;;;;;;9.67;2.70;;;18.50;99.90;;;;;;5055610;28;20187;-77
2022/07/26 04:36:40;;;;;;;14.27;3.78;;;18.50;99.90;;;;;;5058868;28;20522;-77
2022/07/26 04:39:24;;;;;;;13.02;2.90;;;18.60;99.90;;;;;;5057792;28;20231;-77
2022/07/26 04:42:08;;;;;;;8.33;2.53;;;18.60;99.90;;;;;;5060684;28;20186;-77
2022/07/26 04:44:53;;;;;;;14.43;3.30;;;18.60;99.90;;;;;;5050441;28;20390;-77
2022/07/26 04:47:40;;;;;;;12.60;2.70;;;18.60;99.90;;;;;;5056409;28;20584;-77
2022/07/26 04:50:26;;;;;;;18.77;3.27;;;18.60;99.90;;;;;;5055469;28;20275;-76
2022/07/26 04:53:11;;;;;;;9.97;2.20;;;18.60;99.90;;;;;;5057183;28;20244;-77
2022/07/26 04:55:55;;;;;;;13.67;2.90;;;18.60;99.90;;;;;;5049028;28;20219;-77
2022/07/26 04:58:39;;;;;;;12.90;2.80;;;18.60;99.90;;;;;;5062373;28;20581;-77
2022/07/26 05:01:23;;;;;;;17.08;3.97;;;18.60;99.90;;;;;;5044860;28;20510;-76
2022/07/26 05:04:07;;;;;;;11.93;2.77;;;18.60;99.90;;;;;;5052800;28;20685;-77
2022/07/26 05:06:50;;;;;;;17.73;3.17;;;18.60;99.90;;;;;;5060836;28;20209;-76
2022/07/26 05:09:34;;;;;;;14.27;3.33;;;18.60;99.90;;;;;;5055119;28;20255;-78
2022/07/26 05:12:18;;;;;;;10.87;2.53;;;18.60;99.90;;;;;;5061670;28;20229;-77
2022/07/26 05:15:04;;;;;;;13.10;2.93;;;18.60;99.90;;;;;;5057534;28;20201;-78
2022/07/26 05:17:48;;;;;;;12.63;3.50;;;18.60;99.90;;;;;;5052783;28;20265;-77
2022/07/26 05:20:32;;;;;;;17.27;3.33;;;18.70;99.90;;;;;;5059016;28;20191;-77
2022/07/26 05:23:17;;;;;;;10.90;3.40;;;18.70;99.90;;;;;;5042658;28;20181;-77
2022/07/26 05:26:01;;;;;;;10.23;2.70;;;18.80;99.90;;;;;;5050979;28;20270;-77
2022/07/26 05:28:45;;;;;;;17.73;3.47;;;18.80;99.90;;;;;;5034598;28;20323;-76
2022/07/26 05:31:29;;;;;;;15.07;3.43;;;18.80;99.90;;;;;;5043593;28;20186;-77
2022/07/26 05:34:13;;;;;;;14.93;4.07;;;18.80;99.90;;;;;;5052189;28;20266;-76
2022/07/26 05:36:57;;;;;;;11.43;3.60;;;18.80;99.90;;;;;;5055949;28;20213;-78
2022/07/26 05:39:41;;;;;;;12.33;3.57;;;18.70;99.90;;;;;;5046568;28;20263;-78
2022/07/26 05:42:25;;;;;;;10.50;3.27;;;18.70;99.90;;;;;;5051643;28;20337;-78
2022/07/26 05:45:10;;;;;;;13.10;3.70;;;18.80;99.90;;;;;;5048992;28;20194;-78
2022/07/26 05:47:54;;;;;;;11.57;3.33;;;18.80;99.90;;;;;;5058236;28;20210;-78
2022/07/26 05:50:38;;;;;;;11.47;3.83;;;18.80;99.90;;;;;;5045512;28;20725;-79
2022/07/26 05:53:23;;;;;;;11.17;3.87;;;18.80;99.90;;;;;;5049716;28;20228;-78
2022/07/26 05:56:07;;;;;;;11.83;3.90;;;18.80;99.90;;;;;;5060375;28;20787;-76
2022/07/26 05:58:51;;;;;;;13.27;4.23;;;18.80;99.90;;;;;;5044948;28;20262;-78
2022/07/26 06:01:55;;;;;;;12.20;4.20;;;18.70;99.90;;;;;;5012018;28;20520;-78
2022/07/26 06:04:39;;;;;;;10.70;3.77;;;18.80;99.90;;;;;;5044384;28;20223;-78
2022/07/26 06:07:23;;;;;;;13.17;3.83;;;18.70;99.90;;;;;;5051470;28;20260;-78
2022/07/26 06:10:07;;;;;;;16.57;4.83;;;18.80;99.90;;;;;;5048097;28;20206;-79
2022/07/26 06:12:52;;;;;;;10.40;4.43;;;18.80;99.90;;;;;;5042283;28;20234;-76
2022/07/26 06:15:37;;;;;;;11.95;3.92;;;18.80;99.90;;;;;;5043296;28;20202;-77
2022/07/26 06:18:21;;;;;;;9.93;3.63;;;18.80;99.90;;;;;;5041187;28;20215;-79
2022/07/26 06:21:06;;;;;;;7.23;1.90;;;18.80;99.90;;;;;;5045310;28;20209;-79
2022/07/26 06:23:51;;;;;;;2.45;1.25;;;18.60;99.90;;;;;;5049859;28;20295;-78
2022/07/26 06:26:35;;;;;;;2.80;1.60;;;18.50;99.90;;;;;;5047984;28;20451;-78
2022/07/26 06:29:20;;;;;;;9.03;1.70;;;18.40;99.90;;;;;;5041843;28;20428;-78
2022/07/26 06:32:04;;;;;;;3.93;1.50;;;18.30;99.90;;;;;;5053002;28;20182;-78
2022/07/26 06:34:48;;;;;;;3.93;1.53;;;18.20;99.90;;;;;;5043834;28;20266;-78
2022/07/26 06:37:38;;;;;;;3.80;1.30;;;18.20;99.90;;;;;;5055005;28;20225;-77
2022/07/26 06:40:23;;;;;;;4.97;1.40;;;18.20;99.90;;;;;;5047488;28;20207;-78
2022/07/26 06:43:07;;;;;;;4.97;1.60;;;18.20;99.90;;;;;;5056996;28;20386;-78
2022/07/26 06:45:52;;;;;;;4.77;1.90;;;18.30;99.90;;;;;;5051395;28;20753;-78
2022/07/26 06:48:36;;;;;;;5.07;1.50;;;18.30;99.90;;;;;;5059507;28;20302;-78
2022/07/26 06:51:22;;;;;;;4.95;1.83;;;18.00;99.90;;;;;;5047073;28;20226;-78
2022/07/26 06:54:06;;;;;;;3.27;1.50;;;18.30;99.90;;;;;;5058463;28;20224;-77
2022/07/26 06:56:50;;;;;;;5.37;1.40;;;18.40;99.90;;;;;;5047688;28;20214;-78
2022/07/26 06:59:35;;;;;;;5.10;1.87;;;18.40;99.90;;;;;;5037546;28;20186;-78
2022/07/26 07:02:19;;;;;;;6.33;1.50;;;18.50;99.90;;;;;;5035969;28;20190;-77
2022/07/26 07:05:04;;;;;;;4.77;1.50;;;18.50;99.90;;;;;;5056561;28;20267;-78
2022/07/26 07:07:48;;;;;;;4.50;1.43;;;18.50;99.90;;;;;;5053267;28;20230;-78
2022/07/26 07:10:32;;;;;;;6.07;1.30;;;18.50;99.90;;;;;;5053117;28;20559;-78
2022/07/26 07:13:16;;;;;;;6.83;1.60;;;18.50;99.90;;;;;;5052872;28;20194;-78
2022/07/26 07:16:00;;;;;;;5.27;1.10;;;18.50;99.90;;;;;;5052108;28;20261;-78
2022/07/26 07:18:44;;;;;;;2.40;1.30;;;18.50;99.90;;;;;;5042176;28;20299;-78
2022/07/26 07:21:28;;;;;;;6.00;1.37;;;18.70;99.90;;;;;;5043910;28;20206;-78
2022/07/26 07:24:12;;;;;;;7.47;1.20;;;18.70;99.90;;;;;;5047721;28;20190;-76
2022/07/26 07:26:58;;;;;;;3.57;1.33;;;18.80;99.90;;;;;;5059060;28;20194;-78
2022/07/26 07:29:42;;;;;;;5.97;1.60;;;18.80;99.90;;;;;;5041222;28;20214;-80
2022/07/26 07:32:27;;;;;;;2.03;1.20;;;18.70;99.90;;;;;;5049013;28;20319;-78
2022/07/26 07:35:11;;;;;;;3.57;0.90;;;18.80;99.90;;;;;;5049719;28;20273;-78
2022/07/26 07:37:55;;;;;;;4.77;1.00;;;18.90;99.90;;;;;;5055202;28;20222;-78
2022/07/26 07:40:39;;;;;;;6.17;1.03;;;18.80;99.90;;;;;;5046182;28;20266;-77
2022/07/26 07:43:23;;;;;;;3.77;1.10;;;18.80;99.90;;;;;;5054962;28;20193;-78
2022/07/26 07:46:07;;;;;;;2.63;1.03;;;18.80;99.90;;;;;;5047380;28;20202;-80
2022/07/26 07:48:52;;;;;;;4.07;1.00;;;18.90;99.90;;;;;;5037565;28;20218;-78
2022/07/26 07:51:37;;;;;;;3.63;1.17;;;18.90;99.90;;;;;;5046776;28;20242;-77
2022/07/26 07:54:20;;;;;;;4.63;0.90;;;18.80;99.90;;;;;;5059774;28;20194;-80
2022/07/26 07:57:05;;;;;;;1.70;0.60;;;18.80;99.90;;;;;;5046501;28;20207;-77
2022/07/26 07:59:49;;;;;;;3.23;1.00;;;18.80;99.90;;;;;;5060372;28;20253;-78
2022/07/26 08:02:33;;;;;;;1.90;0.60;;;18.70;99.90;;;;;;5049441;28;20283;-79
2022/07/26 08:05:17;;;;;;;1.57;0.57;;;18.60;99.90;;;;;;5039729;28;20186;-77
2022/07/26 08:08:02;;;;;;;2.33;0.77;;;18.50;99.90;;;;;;5046454;28;20211;-78
2022/07/26 08:10:46;;;;;;;2.17;0.60;;;18.40;99.90;;;;;;5053408;28;20206;-81
2022/07/26 08:13:30;;;;;;;2.27;0.50;;;18.30;99.90;;;;;;5039976;28;20661;-78
2022/07/26 08:16:14;;;;;;;1.53;0.70;;;18.20;99.90;;;;;;5047516;28;20265;-77
2022/07/26 08:18:58;;;;;;;2.50;0.50;;;18.10;99.90;;;;;;5054787;28;20221;-78
2022/07/26 08:21:44;;;;;;;3.50;0.50;;;18.00;99.90;;;;;;5055295;28;20277;-78
2022/07/26 08:24:28;;;;;;;2.80;0.60;;;18.00;99.90;;;;;;5051043;28;20266;-78
2022/07/26 08:27:13;;;;;;;2.80;0.50;;;17.90;99.90;;;;;;5043585;28;20269;-78
2022/07/26 08:29:57;;;;;;;4.37;0.77;;;17.90;99.90;;;;;;5041109;28;20202;-78
2022/07/26 08:32:41;;;;;;;4.70;0.70;;;17.90;99.90;;;;;;5048039;28;20190;-78
2022/07/26 08:35:25;;;;;;;3.10;0.77;;;18.00;99.90;;;;;;5043840;28;20186;-77
2022/07/26 08:38:09;;;;;;;2.57;0.80;;;18.00;99.90;;;;;;5044319;28;20260;-78
2022/07/26 08:40:53;;;;;;;3.27;0.80;;;18.10;99.90;;;;;;5046739;28;20236;-77
2022/07/26 08:43:37;;;;;;;3.57;0.80;;;18.10;99.90;;;;;;5050590;28;20361;-77
2022/07/26 08:46:23;;;;;;;3.17;0.80;;;18.00;99.90;;;;;;5044920;28;20188;-77
2022/07/26 08:49:09;;;;;;;7.83;1.10;;;18.00;99.90;;;;;;5048684;28;20702;-78
2022/07/26 08:51:53;;;;;;;4.20;0.83;;;18.00;99.90;;;;;;5042575;28;20988;-77
2022/07/26 08:54:46;;;;;;;6.95;1.08;;;18.00;99.90;;;;;;5046388;28;20419;-78
2022/07/26 08:57:30;;;;;;;4.43;1.10;;;18.00;99.90;;;;;;5045628;28;20440;-78
2022/07/26 09:00:24;;;;;;;6.05;1.00;;;18.00;99.90;;;;;;5045910;28;20389;-78
2022/07/26 09:03:23;;;;;;;11.60;1.75;;;18.00;99.90;;;;;;5044901;28;20407;-78
2022/07/26 09:06:13;;;;;;;5.60;1.17;;;18.10;99.90;;;;;;5051586;28;20471;-77
2022/07/26 09:09:11;;;;;;;11.25;1.60;;;18.20;99.90;;;;;;5045796;28;20398;-77
2022/07/26 09:11:56;;;;;;;3.50;0.80;;;18.20;99.90;;;;;;5050170;28;20477;-77
2022/07/26 09:14:40;;;;;;;3.67;0.68;;;18.30;99.90;;;;;;5045713;28;20400;-78
2022/07/26 09:17:40;;;;;;;4.30;0.65;;;18.40;99.90;;;;;;5047623;28;20418;-78
2022/07/26 09:20:29;;;;;;;3.53;0.80;;;18.40;99.90;;;;;;5055826;28;20421;-78
2022/07/26 09:23:15;;;;;;;5.00;0.63;;;18.40;99.90;;;;;;5040047;28;20397;-76
2022/07/26 09:26:03;;;;;;;4.05;1.00;;;18.40;99.90;;;;;;5044799;28;20394;-78
2022/07/26 09:29:03;;;;;;;3.53;0.80;;;18.40;99.90;;;;;;5035447;28;20396;-78
2022/07/26 09:31:47;;;;;;;3.95;0.93;;;18.50;99.90;;;;;;5049846;28;20459;-78
2022/07/26 09:34:31;;;;;;;2.03;0.65;;;18.60;99.90;;;;;;5043724;28;20412;-77
2022/07/26 09:37:15;;;;;;;3.35;0.60;;;18.70;99.90;;;;;;5049020;28;20416;-78
2022/07/26 09:40:03;;;;;;;3.33;0.50;;;18.70;99.90;;;;;;5054555;28;20408;-78
2022/07/26 09:43:04;;;;;;;1.13;0.50;;;18.80;99.90;;;;;;5052434;28;20408;-78
2022/07/26 09:46:03;;;;;;;2.08;0.50;;;18.90;99.90;;;;;;5055642;28;20400;-78
2022/07/26 09:48:47;;;;;;;4.77;0.80;;;18.90;99.90;;;;;;5042031;28;20416;-78
2022/07/26 09:51:46;;;;;;;7.27;1.00;;;18.80;99.90;;;;;;5042521;28;20777;-78
2022/07/26 09:54:34;;;;;;;20.17;1.80;;;18.70;99.90;;;;;;5053204;28;20406;-78
2022/07/26 09:57:19;;;;;;;6.22;0.82;;;18.70;99.90;;;;;;5043289;28;20414;-78
2022/07/26 10:00:05;;;;;;;2.07;0.60;;;18.90;99.90;;;;;;5051408;28;20423;-76
2022/07/26 10:02:49;;;;;;;7.53;1.20;;;19.00;99.90;;;;;;5042249;28;20413;-77
2022/07/26 10:05:33;;;;;;;2.35;0.70;;;19.00;99.90;;;;;;5049291;28;20840;-77
2022/07/26 10:08:17;;;;;;;2.85;0.63;;;19.10;99.90;;;;;;5049628;28;20423;-76
2022/07/26 10:11:07;;;;;;;2.72;0.60;;;19.10;99.90;;;;;;5047717;28;20396;-81
2022/07/26 10:13:51;;;;;;;2.65;0.60;;;19.30;99.90;;;;;;5051877;28;20439;-77
2022/07/26 10:16:35;;;;;;;3.80;0.80;;;19.30;99.90;;;;;;5043810;28;20452;-78
2022/07/26 10:19:45;;;;;;;2.60;0.70;;;19.30;99.90;;;;;;5049795;28;20400;-78
2022/07/26 10:22:35;;;;;;;3.65;0.80;;;19.30;99.90;;;;;;5040896;28;20396;-77
2022/07/26 10:25:19;;;;;;;1.27;0.50;;;19.30;99.90;;;;;;5045971;28;20485;-76
2022/07/26 10:28:03;;;;;;;3.38;0.63;;;19.20;99.90;;;;;;5043663;28;20438;-79
2022/07/26 10:30:47;;;;;;;2.50;0.80;;;19.30;99.90;;;;;;5042574;28;20468;-78
2022/07/26 10:33:42;;;;;;;3.57;0.90;;;19.50;99.90;;;;;;5054095;28;20417;-77
2022/07/26 10:36:28;;;;;;;3.85;0.60;;;19.70;99.90;;;;;;5046187;28;20411;-77
2022/07/26 10:39:14;;;;;;;3.65;0.90;;;19.80;99.90;;;;;;5042896;28;20474;-78
2022/07/26 10:42:07;;;;;;;3.03;0.88;;;19.70;99.90;;;;;;5046336;28;20393;-78
2022/07/26 10:45:15;;;;;;;3.85;0.73;;;19.70;99.90;;;;;;5050711;28;20391;-80
2022/07/26 10:48:13;;;;;;;2.15;0.70;;;19.80;99.90;;;;;;5049897;28;20400;-76
2022/07/26 10:50:57;;;;;;;3.22;0.80;;;19.80;99.90;;;;;;5043586;28;20401;-77
2022/07/26 10:53:41;;;;;;;2.35;0.70;;;20.00;99.90;;;;;;5051227;28;20402;-77
2022/07/26 10:56:26;;;;;;;2.90;0.90;;;20.00;99.90;;;;;;5050085;28;20982;-78
2022/07/26 10:59:11;;;;;;;9.48;1.20;;;19.90;99.90;;;;;;5041950;28;20403;-77
2022/07/26 11:01:55;;;;;;;9.10;1.17;;;19.80;99.90;;;;;;5038170;28;20467;-77
2022/07/26 11:04:40;;;;;;;5.83;1.10;;;19.90;99.90;;;;;;5050633;28;20396;-77
2022/07/26 11:07:24;;;;;;;6.22;0.90;;;19.80;99.90;;;;;;5050787;28;20454;-78
2022/07/26 11:10:08;;;;;;;3.42;0.98;;;19.70;99.90;;;;;;5054311;28;20450;-77
2022/07/26 11:13:02;;;;;;;4.50;1.05;;;19.60;99.90;;;;;;5055718;28;20398;-78
2022/07/26 11:15:57;;;;;;;4.20;1.00;;;19.50;99.90;;;;;;5043927;28;20966;-78
2022/07/26 11:18:42;;;;;;;29.48;3.30;;;19.40;99.90;;;;;;5052798;28;20397;-77
2022/07/26 11:21:26;;;;;;;5.57;1.17;;;19.30;99.90;;;;;;5050463;28;20458;-76
2022/07/26 11:24:10;;;;;;;6.43;1.00;;;19.30;99.90;;;;;;5049121;28;20221;-77
2022/07/26 11:26:54;;;;;;;1.95;0.73;;;19.30;99.90;;;;;;5059036;28;20277;-77
2022/07/26 11:29:39;;;;;;;5.43;1.00;;;19.20;99.90;;;;;;5046545;28;20273;-77
2022/07/26 11:32:24;;;;;;;2.80;0.90;;;19.20;99.90;;;;;;5053283;28;20203;-78
2022/07/26 11:35:08;;;;;;;2.33;0.75;;;19.20;99.90;;;;;;5051600;28;20252;-77
2022/07/26 11:37:57;;;;;;;2.80;0.77;;;19.30;99.90;;;;;;5043874;28;20326;-77
2022/07/26 11:40:45;;;;;;;1.45;0.70;;;19.40;99.90;;;;;;5053175;28;20297;-78
2022/07/26 11:43:37;;;;;;;2.63;0.60;;;19.50;99.90;;;;;;5054540;28;20182;-76
2022/07/26 11:46:21;;;;;;;2.95;0.60;;;19.50;99.90;;;;;;5044498;28;20712;-78
2022/07/26 11:49:17;;;;;;;2.80;0.90;;;19.60;99.90;;;;;;5046114;28;20336;-77
2022/07/26 11:52:03;;;;;;;1.85;0.50;;;19.60;99.90;;;;;;5046277;28;20288;-78
2022/07/26 11:54:50;;;;;;;3.05;0.68;;;19.60;99.90;;;;;;5054673;28;20190;-77
2022/07/26 11:57:34;;;;;;;2.53;0.82;;;19.70;99.90;;;;;;5048596;28;20304;-78
2022/07/26 12:00:19;;;;;;;5.00;0.70;;;19.80;99.90;;;;;;5052608;28;20175;-78
2022/07/26 12:03:03;;;;;;;4.00;0.70;;;19.90;99.90;;;;;;5057271;28;20195;-77
2022/07/26 12:06:05;;;;;;;2.45;0.60;;;19.90;99.90;;;;;;5056734;28;20222;-77
2022/07/26 12:08:55;;;;;;;4.10;0.70;;;19.90;99.90;;;;;;5047842;28;20253;-78
2022/07/26 12:11:40;;;;;;;4.05;1.00;;;20.00;99.90;;;;;;5058211;28;20225;-77
2022/07/26 12:14:29;;;;;;;4.05;0.80;;;20.00;99.90;;;;;;5049430;28;20771;-77
2022/07/26 12:17:16;;;;;;;3.72;0.65;;;20.00;99.90;;;;;;5053242;28;20365;-78
2022/07/26 12:20:17;;;;;;;3.03;0.80;;;20.00;99.90;;;;;;5055680;28;20237;-77
2022/07/26 12:23:04;;;;;;;4.85;1.23;;;20.10;99.90;;;;;;5045173;28;20186;-76
2022/07/26 12:25:48;;;;;;;4.28;0.77;;;20.10;99.90;;;;;;5050043;28;20219;-77
2022/07/26 12:28:39;;;;;;;1.45;0.70;;;20.20;99.90;;;;;;5054160;28;20225;-78
2022/07/26 12:31:32;;;;;;;3.20;0.73;;;20.30;99.90;;;;;;5044789;28;20186;-77
2022/07/26 12:34:20;;;;;;;4.13;0.70;;;20.30;99.90;;;;;;5048641;28;20199;-77
2022/07/26 12:37:13;;;;;;;3.67;0.70;;;20.30;99.90;;;;;;5056789;28;20217;-78
2022/07/26 12:40:11;;;;;;;4.10;0.60;;;20.30;99.90;;;;;;5069462;28;20190;-77
2022/07/26 12:43:00;;;;;;;3.90;0.88;;;20.20;99.90;;;;;;5049904;28;20259;-77
2022/07/26 12:45:44;;;;;;;1.52;0.82;;;20.20;99.90;;;;;;5058640;28;20226;-77
2022/07/26 12:48:28;;;;;;;3.35;0.70;;;20.10;99.90;;;;;;5046340;28;20214;-76
2022/07/26 12:51:12;;;;;;;2.72;0.60;;;20.10;99.90;;;;;;5050463;28;20643;-77
2022/07/26 12:53:56;;;;;;;4.72;0.90;;;20.20;99.90;;;;;;5061405;28;20273;-77
2022/07/26 12:56:40;;;;;;;1.13;0.70;;;20.10;99.90;;;;;;5047503;28;20219;-78
2022/07/26 12:59:24;;;;;;;3.03;0.75;;;20.10;99.90;;;;;;5043500;28;20194;-76
2022/07/26 13:02:08;;;;;;;2.83;0.80;;;20.10;99.90;;;;;;5050921;28;20186;-77
2022/07/26 13:04:52;;;;;;;4.90;1.00;;;20.10;99.90;;;;;;5049993;28;20250;-77
2022/07/26 13:07:37;;;;;;;3.72;1.00;;;20.00;99.90;;;;;;5051374;28;20282;-78
2022/07/26 13:10:21;;;;;;;5.63;1.40;;;20.00;99.90;;;;;;5057336;28;20224;-75
2022/07/26 13:13:06;;;;;;;4.60;1.00;;;19.90;99.90;;;;;;5051069;28;20198;-77
2022/07/26 13:15:50;;;;;;;5.47;1.00;;;19.90;99.90;;;;;;5056485;28;20218;-77
2022/07/26 13:18:34;;;;;;;5.63;1.10;;;19.90;99.90;;;;;;5050467;28;20276;-77
2022/07/26 13:21:18;;;;;;;4.93;0.98;;;20.00;99.90;;;;;;5045869;28;20221;-77
2022/07/26 13:24:02;;;;;;;5.07;0.90;;;20.00;99.90;;;;;;5040233;28;20674;-78
2022/07/26 13:26:46;;;;;;;7.05;1.20;;;20.00;99.90;;;;;;5048191;28;20202;-78
2022/07/26 13:29:31;;;;;;;6.95;1.20;;;19.90;99.90;;;;;;5052454;28;20194;-80
2022/07/26 13:32:16;;;;;;;4.60;1.23;;;19.90;99.90;;;;;;5044170;28;20194;-76
2022/07/26 13:35:00;;;;;;;8.98;1.83;;;19.90;99.90;;;;;;5052089;28;20186;-78
2022/07/26 13:37:44;;;;;;;6.13;1.33;;;19.90;99.90;;;;;;5045343;28;20289;-77
2022/07/26 13:40:28;;;;;;;4.40;0.93;;;20.00;99.90;;;;;;5057261;28;20210;-78
2022/07/26 13:43:13;;;;;;;8.95;1.60;;;20.00;99.90;;;;;;5049034;28;20181;-77
2022/07/26 13:45:57;;;;;;;7.43;1.25;;;20.00;99.90;;;;;;5042251;28;20674;-76
2022/07/26 13:48:41;;;;;;;8.38;1.38;;;20.10;99.90;;;;;;5057515;28;20268;-77
2022/07/26 13:54:33;;;;;;;8.00;1.60;;;20.10;99.90;;;;;;5046422;28;20231;-76
2022/07/26 13:57:17;;;;;;;6.60;1.42;;;20.00;99.90;;;;;;5037838;28;20310;-77
2022/07/26 14:00:01;;;;;;;7.40;1.55;;;20.10;99.90;;;;;;5048107;28;20188;-77
2022/07/26 14:02:45;;;;;;;9.75;2.05;;;20.10;99.90;;;;;;5043293;28;20190;-77
2022/07/26 14:05:29;;;;;;;8.27;2.15;;;20.10;99.90;;;;;;5046591;28;20201;-76
2022/07/26 14:08:13;;;;;;;7.35;1.65;;;20.10;99.90;;;;;;5050810;28;20214;-78
2022/07/26 14:10:57;;;;;;;7.18;1.75;;;20.20;99.90;;;;;;5058671;28;20182;-77
2022/07/26 14:13:41;;;;;;;8.27;1.20;;;20.20;99.90;;;;;;5046211;28;20229;-77
2022/07/26 14:16:26;;;;;;;4.10;1.23;;;20.30;99.90;;;;;;5043079;28;20237;-78
2022/07/26 14:19:12;;;;;;;6.47;1.63;;;20.30;99.90;;;;;;5059432;28;20210;-77
2022/07/26 14:21:56;;;;;;;6.55;1.30;;;20.30;99.90;;;;;;5046912;28;20194;-77
2022/07/26 14:24:40;;;;;;;7.05;1.52;;;20.30;99.90;;;;;;5048551;28;20187;-77
2022/07/26 14:27:24;;;;;;;6.93;1.55;;;20.40;99.90;;;;;;5047291;28;20255;-77
2022/07/26 14:30:09;;;;;;;5.72;1.10;;;20.50;99.90;;;;;;5050347;28;20254;-77
2022/07/26 14:32:53;;;;;;;6.18;1.38;;;20.50;99.90;;;;;;5050381;28;20226;-77
2022/07/26 14:35:37;;;;;;;7.28;1.55;;;20.50;99.90;;;;;;5049334;28;20233;-77
2022/07/26 14:38:21;;;;;;;5.75;1.35;;;20.50;99.90;;;;;;5041089;28;20239;-77
2022/07/26 14:41:06;;;;;;;5.68;1.35;;;20.50;99.90;;;;;;5053175;28;20330;-77